createdAt,value
2023-10-23T00:00:09.536Z,106.08
2023-10-23T00:02:42.277Z,106.14
2023-10-23T00:05:10.833Z,106.27
2023-10-23T00:07:39.221Z,106.37
2023-10-23T00:10:09.090Z,106.11
2023-10-23T00:12:37.489Z,105.90
2023-10-23T00:15:06.633Z,106.01
2023-10-23T00:17:35.074Z,106.06
2023-10-23T00:20:05.129Z,106.01
2023-10-23T00:22:33.397Z,105.99
2023-10-23T00:25:01.662Z,106.00
2023-10-23T00:27:30.026Z,106.17
2023-10-23T00:29:58.338Z,106.17
2023-10-23T00:32:26.822Z,106.40
2023-10-23T00:34:55.085Z,106.38
2023-10-23T00:37:24.761Z,106.64
2023-10-23T00:39:53.181Z,106.69
2023-10-23T00:42:21.426Z,106.49
2023-10-23T00:44:49.861Z,106.29
2023-10-23T00:47:19.750Z,105.85
2023-10-23T00:49:48.010Z,105.82
2023-10-23T00:52:16.793Z,105.92
2023-10-23T00:54:48.067Z,105.94
2023-10-23T00:57:16.473Z,105.40
2023-10-23T00:59:45.168Z,105.65
2023-10-23T01:02:13.794Z,106.01
2023-10-23T01:04:42.579Z,106.29
2023-10-23T01:07:11.443Z,106.28
2023-10-23T01:09:39.970Z,106.32
2023-10-23T01:12:10.387Z,106.43
2023-10-23T01:14:38.829Z,106.10
2023-10-23T01:17:08.273Z,106.29
2023-10-23T01:19:36.707Z,106.20
2023-10-23T01:22:05.195Z,106.10
2023-10-23T01:24:38.351Z,106.22
2023-10-23T01:27:08.262Z,106.18
2023-10-23T01:29:37.311Z,106.02
2023-10-23T01:32:06.072Z,106.24
2023-10-23T01:34:34.520Z,106.26
2023-10-23T01:37:02.796Z,106.80
2023-10-23T01:39:31.052Z,106.44
2023-10-23T01:42:00.417Z,105.92
2023-10-23T01:44:30.121Z,106.37
2023-10-23T01:46:58.439Z,106.41
2023-10-23T01:49:27.190Z,106.43
2023-10-23T01:51:56.094Z,106.26
2023-10-23T01:54:24.503Z,106.21
2023-10-23T01:56:52.874Z,106.38
2023-10-23T01:59:21.117Z,106.26
2023-10-23T02:01:50.833Z,106.37
2023-10-23T02:04:19.161Z,106.43
2023-10-23T02:06:47.542Z,106.43
2023-10-23T02:09:17.378Z,106.42
2023-10-23T02:11:45.940Z,106.49
2023-10-23T02:14:14.315Z,106.50
2023-10-23T02:16:41.643Z,106.40
2023-10-23T02:19:11.421Z,106.47
2023-10-23T02:21:39.770Z,106.53
2023-10-23T02:24:08.398Z,106.45
2023-10-23T02:26:36.585Z,106.44
2023-10-23T02:29:04.843Z,106.56
2023-10-23T02:31:33.188Z,106.26
2023-10-23T02:34:01.441Z,106.34
2023-10-23T02:36:31.614Z,106.61
2023-10-23T02:39:00.783Z,106.56
2023-10-23T02:41:31.886Z,106.72
2023-10-23T02:44:00.201Z,106.80
2023-10-23T02:46:28.676Z,106.82
2023-10-23T02:48:56.999Z,106.56
2023-10-23T02:51:25.589Z,106.57
2023-10-23T02:53:55.238Z,106.65
2023-10-23T02:56:23.535Z,106.79
2023-10-23T02:58:51.764Z,106.96
2023-10-23T03:01:22.493Z,106.87
2023-10-23T03:03:50.856Z,107.13
2023-10-23T03:06:19.557Z,107.21
2023-10-23T03:08:47.924Z,107.13
2023-10-23T03:11:17.599Z,107.15
2023-10-23T03:13:46.022Z,107.34
2023-10-23T03:16:15.741Z,106.93
2023-10-23T03:18:44.149Z,106.74
2023-10-23T03:21:12.581Z,106.87
2023-10-23T03:23:40.808Z,106.91
2023-10-23T03:26:09.061Z,107.24
2023-10-23T03:28:38.735Z,107.17
2023-10-23T03:31:06.934Z,107.04
2023-10-23T03:33:35.162Z,106.93
2023-10-23T03:36:03.412Z,106.90
2023-10-23T03:38:31.962Z,106.92
2023-10-23T03:41:01.795Z,107.18
2023-10-23T03:43:30.516Z,107.22
2023-10-23T03:46:04.173Z,107.30
2023-10-23T03:48:32.562Z,107.52
2023-10-23T03:51:02.242Z,107.40
2023-10-23T03:53:30.608Z,107.20
2023-10-23T03:55:58.848Z,107.59
2023-10-23T03:58:27.100Z,107.64
2023-10-23T04:00:56.019Z,107.47
2023-10-23T04:03:25.915Z,107.17
2023-10-23T04:05:54.311Z,107.18
2023-10-23T04:08:22.652Z,106.95
2023-10-23T04:10:51.362Z,106.94
2023-10-23T04:13:19.673Z,107.27
2023-10-23T04:15:55.565Z,107.55
2023-10-23T04:18:26.762Z,107.49
2023-10-23T04:21:04.698Z,107.24
2023-10-23T04:23:33.187Z,107.22
2023-10-23T04:26:01.630Z,107.24
2023-10-23T04:28:30.090Z,107.20
2023-10-23T04:30:58.368Z,107.35
2023-10-23T04:33:28.492Z,107.41
2023-10-23T04:35:58.021Z,107.10
2023-10-23T04:38:26.949Z,107.14
2023-10-23T04:40:55.319Z,107.01
2023-10-23T04:43:24.292Z,107.08
2023-10-23T04:45:54.427Z,107.27
2023-10-23T04:48:23.185Z,107.08
2023-10-23T04:50:52.801Z,107.05
2023-10-23T04:53:21.639Z,107.13
2023-10-23T04:55:49.956Z,107.24
2023-10-23T04:58:18.353Z,107.03
2023-10-23T05:00:46.826Z,107.06
2023-10-23T05:03:15.195Z,107.12
2023-10-23T05:05:49.210Z,107.00
2023-10-23T05:08:18.942Z,107.02
2023-10-23T05:10:47.323Z,107.88
2023-10-23T05:13:15.613Z,108.54
2023-10-23T05:15:44.017Z,108.65
2023-10-23T05:18:12.355Z,108.73
2023-10-23T05:20:40.589Z,108.36
2023-10-23T05:23:08.827Z,108.28
2023-10-23T05:25:40.194Z,108.33
2023-10-23T05:28:08.514Z,107.82
2023-10-23T05:30:36.726Z,107.48
2023-10-23T05:33:05.544Z,107.17
2023-10-23T05:35:34.035Z,107.19
2023-10-23T05:38:02.348Z,107.30
2023-10-23T05:40:33.497Z,106.93
2023-10-23T05:43:03.312Z,107.16
2023-10-23T05:45:31.746Z,107.20
2023-10-23T05:48:00.064Z,107.17
2023-10-23T05:50:28.372Z,107.33
2023-10-23T05:52:56.612Z,107.30
2023-10-23T05:55:24.902Z,107.19
2023-10-23T05:57:53.738Z,107.37
2023-10-23T06:00:23.589Z,107.30
2023-10-23T06:02:52.206Z,107.31
2023-10-23T06:05:20.499Z,107.20
2023-10-23T06:07:49.010Z,107.30
2023-10-23T06:10:17.479Z,107.40
2023-10-23T06:12:45.723Z,107.30
2023-10-23T06:15:13.995Z,107.36
2023-10-23T06:17:43.659Z,107.53
2023-10-23T06:20:12.793Z,107.38
2023-10-23T06:22:41.003Z,107.60
2023-10-23T06:25:10.036Z,107.43
2023-10-23T06:27:38.313Z,107.29
2023-10-23T06:30:07.917Z,107.31
2023-10-23T06:32:36.558Z,107.37
2023-10-23T06:35:07.366Z,107.37
2023-10-23T06:37:35.692Z,107.38
2023-10-23T06:40:04.205Z,107.33
2023-10-23T06:42:32.496Z,107.01
2023-10-23T06:45:00.954Z,107.30
2023-10-23T06:47:29.650Z,107.05
2023-10-23T06:49:57.903Z,106.83
2023-10-23T06:52:27.600Z,106.96
2023-10-23T06:54:55.859Z,107.35
2023-10-23T06:57:24.132Z,107.54
2023-10-23T06:59:55.387Z,107.66
2023-10-23T07:02:23.893Z,107.85
2023-10-23T07:04:52.181Z,107.50
2023-10-23T07:07:29.018Z,108.03
2023-10-23T07:10:01.631Z,108.18
2023-10-23T07:12:30.212Z,108.07
2023-10-23T07:14:58.525Z,108.04
2023-10-23T07:17:27.017Z,107.92
2023-10-23T07:19:55.311Z,107.75
2023-10-23T07:22:23.523Z,108.02
2023-10-23T07:24:51.756Z,108.07
2023-10-23T07:27:21.508Z,107.98
2023-10-23T07:29:49.876Z,107.67
2023-10-23T07:32:18.154Z,107.57
2023-10-23T07:34:46.381Z,107.26
2023-10-23T07:37:19.300Z,107.04
2023-10-23T07:39:48.986Z,107.17
2023-10-23T07:42:17.532Z,106.86
2023-10-23T07:44:47.421Z,106.91
2023-10-23T07:47:15.909Z,106.85
2023-10-23T07:49:44.138Z,106.71
2023-10-23T07:52:12.456Z,106.89
2023-10-23T07:54:40.753Z,106.67
2023-10-23T07:57:09.031Z,106.82
2023-10-23T07:59:37.440Z,106.74
2023-10-23T08:02:07.990Z,106.63
2023-10-23T08:04:36.421Z,106.04
2023-10-23T08:07:04.985Z,106.26
2023-10-23T08:09:33.265Z,105.99
2023-10-23T08:12:01.486Z,105.98
2023-10-23T08:14:29.822Z,105.91
2023-10-23T08:16:58.134Z,106.07
2023-10-23T08:19:28.015Z,105.85
2023-10-23T08:21:56.411Z,105.78
2023-10-23T08:24:24.894Z,105.83
2023-10-23T08:26:53.237Z,105.60
2023-10-23T08:29:21.571Z,105.46
2023-10-23T08:31:49.854Z,105.43
2023-10-23T08:34:22.358Z,105.73
2023-10-23T08:36:52.389Z,105.35
2023-10-23T08:39:20.857Z,105.08
2023-10-23T08:41:49.745Z,104.78
2023-10-23T08:44:18.163Z,104.88
2023-10-23T08:46:46.447Z,104.90
2023-10-23T08:49:17.405Z,105.05
2023-10-23T08:51:51.141Z,104.47
2023-10-23T08:54:22.652Z,104.54
2023-10-23T08:56:55.700Z,104.75
2023-10-23T08:59:24.128Z,104.70
2023-10-23T09:01:52.729Z,104.63
2023-10-23T09:04:27.226Z,104.57
2023-10-23T09:06:57.294Z,104.84
2023-10-23T09:09:27.769Z,104.80
2023-10-23T09:11:56.062Z,104.90
2023-10-23T09:14:26.002Z,104.53
2023-10-23T09:16:56.011Z,104.57
2023-10-23T09:19:29.218Z,104.28
2023-10-23T09:22:00.816Z,104.28
2023-10-23T09:24:34.790Z,104.14
2023-10-23T09:27:03.189Z,104.31
2023-10-23T09:29:31.491Z,103.95
2023-10-23T09:32:00.714Z,104.07
2023-10-23T09:34:30.988Z,104.10
2023-10-23T09:36:59.762Z,104.08
2023-10-23T09:39:28.233Z,104.34
2023-10-23T09:41:58.499Z,104.50
2023-10-23T09:44:29.168Z,104.22
2023-10-23T09:47:00.842Z,104.28
2023-10-23T09:49:31.120Z,104.30
2023-10-23T09:52:01.831Z,104.27
2023-10-23T09:54:32.724Z,104.00
2023-10-23T09:57:06.045Z,103.94
2023-10-23T09:59:43.408Z,104.03
2023-10-23T10:02:12.670Z,103.97
2023-10-23T10:04:51.468Z,104.18
2023-10-23T10:07:25.004Z,104.26
2023-10-23T10:09:54.777Z,104.08
2023-10-23T10:12:26.804Z,103.95
2023-10-23T10:14:57.586Z,104.28
2023-10-23T10:17:27.712Z,103.83
2023-10-23T10:19:57.378Z,104.07
2023-10-23T10:22:30.027Z,103.77
2023-10-23T10:24:59.114Z,104.16
2023-10-23T10:27:29.531Z,103.92
2023-10-23T10:29:57.823Z,104.21
2023-10-23T10:32:26.322Z,104.44
2023-10-23T10:34:57.726Z,103.76
2023-10-23T10:37:29.006Z,104.34
2023-10-23T10:40:09.057Z,103.72
2023-10-23T10:42:43.354Z,103.52
2023-10-23T10:45:20.955Z,104.16
2023-10-23T10:47:52.987Z,104.02
2023-10-23T10:50:36.033Z,103.83
2023-10-23T10:53:05.683Z,103.81
2023-10-23T10:55:34.723Z,104.01
2023-10-23T10:58:05.254Z,104.55
2023-10-23T11:00:36.678Z,104.16
2023-10-23T11:03:05.493Z,103.43
2023-10-23T11:05:34.236Z,103.82
2023-10-23T11:08:02.596Z,103.20
2023-10-23T11:10:30.871Z,103.92
2023-10-23T11:13:00.319Z,104.11
2023-10-23T11:15:29.997Z,103.55
2023-10-23T11:17:58.535Z,104.01
2023-10-23T11:20:32.040Z,104.25
2023-10-23T11:23:00.737Z,103.33
2023-10-23T11:25:29.238Z,103.59
2023-10-23T11:27:57.605Z,103.95
2023-10-23T11:30:30.751Z,103.93
2023-10-23T11:32:59.049Z,104.63
2023-10-23T11:35:35.017Z,104.81
2023-10-23T11:38:05.888Z,103.45
2023-10-23T11:40:37.975Z,103.83
2023-10-23T11:43:10.818Z,103.86
2023-10-23T11:45:41.368Z,103.35
2023-10-23T11:48:10.192Z,102.34
2023-10-23T11:50:39.538Z,103.84
2023-10-23T11:53:08.062Z,103.34
2023-10-23T11:55:40.144Z,103.89
2023-10-23T11:58:08.516Z,104.18
2023-10-23T12:00:38.889Z,103.33
2023-10-23T12:03:08.637Z,103.66
2023-10-23T12:05:36.943Z,103.48
2023-10-23T12:08:06.235Z,104.15
2023-10-23T12:10:39.246Z,104.73
2023-10-23T12:13:07.797Z,103.64
2023-10-23T12:15:36.046Z,104.09
2023-10-23T12:18:05.650Z,103.08
2023-10-23T12:20:36.567Z,104.60
2023-10-23T12:23:04.806Z,103.64
2023-10-23T12:25:33.084Z,103.50
2023-10-23T12:28:01.347Z,102.97
2023-10-23T12:30:29.648Z,103.23
2023-10-23T12:33:16.629Z,103.88
2023-10-23T12:35:49.682Z,103.24
2023-10-23T12:38:19.206Z,103.50
2023-10-23T12:40:49.889Z,103.84
2023-10-23T12:43:18.376Z,103.89
2023-10-23T12:45:47.835Z,103.39
2023-10-23T12:48:16.606Z,103.80
2023-10-23T12:50:45.629Z,103.73
2023-10-23T12:53:15.704Z,104.03
2023-10-23T12:55:44.892Z,103.68
2023-10-23T12:58:13.188Z,103.67
2023-10-23T13:00:41.566Z,103.71
2023-10-23T13:03:09.902Z,103.83
2023-10-23T13:05:38.216Z,103.76
2023-10-23T13:08:06.825Z,103.40
2023-10-23T13:10:36.704Z,104.15
2023-10-23T13:13:05.018Z,103.47
2023-10-23T13:15:33.356Z,103.79
2023-10-23T13:18:03.830Z,104.13
2023-10-23T13:21:28.277Z,103.70
2023-10-23T13:23:20.423Z,103.79
2023-10-23T13:26:05.769Z,104.18
2023-10-23T13:28:38.323Z,104.04
2023-10-23T13:31:06.763Z,104.13
2023-10-23T13:33:35.056Z,104.09
2023-10-23T13:36:03.373Z,104.25
2023-10-23T13:38:33.224Z,104.31
2023-10-23T13:41:03.673Z,103.83
2023-10-23T13:43:31.977Z,104.23
2023-10-23T13:46:00.450Z,104.13
2023-10-23T13:48:29.038Z,104.58
2023-10-23T13:50:57.805Z,104.04
2023-10-23T13:53:26.067Z,104.15
2023-10-23T13:55:54.484Z,104.23
2023-10-23T13:58:24.214Z,104.02
2023-10-23T14:00:52.551Z,104.04
2023-10-23T14:03:20.829Z,103.90
2023-10-23T14:05:49.085Z,104.05
2023-10-23T14:08:17.442Z,104.28
2023-10-23T14:10:46.169Z,104.31
2023-10-23T14:13:35.741Z,104.41
2023-10-23T14:16:05.711Z,104.38
2023-10-23T14:18:34.079Z,104.58
2023-10-23T14:21:02.301Z,104.86
2023-10-23T14:23:30.534Z,104.41
2023-10-23T14:25:58.788Z,104.70
2023-10-23T14:28:27.154Z,104.25
2023-10-23T14:30:57.985Z,104.29
2023-10-23T14:33:27.860Z,104.18
2023-10-23T14:35:56.273Z,104.25
2023-10-23T14:38:25.728Z,104.56
2023-10-23T14:40:54.846Z,104.57
2023-10-23T14:43:23.180Z,104.28
2023-10-23T14:45:52.724Z,104.66
2023-10-23T14:48:24.201Z,104.81
2023-10-23T14:50:54.465Z,104.66
2023-10-23T14:53:22.907Z,105.12
2023-10-23T14:55:51.193Z,104.69
2023-10-23T14:58:19.489Z,104.89
2023-10-23T15:00:47.837Z,105.07
2023-10-23T15:03:16.187Z,105.08
2023-10-23T15:05:45.851Z,105.03
2023-10-23T15:08:14.112Z,105.26
2023-10-23T15:10:42.382Z,105.20
2023-10-23T15:13:10.672Z,105.47
2023-10-23T15:15:39.258Z,105.59
2023-10-23T15:18:07.620Z,105.72
2023-10-23T15:20:35.842Z,105.62
2023-10-23T15:23:07.427Z,106.01
2023-10-23T15:25:35.818Z,106.26
2023-10-23T15:28:05.301Z,106.46
2023-10-23T15:30:33.898Z,106.79
2023-10-23T15:33:02.277Z,106.84
2023-10-23T15:35:30.596Z,106.75
2023-10-23T15:37:58.896Z,107.14
2023-10-23T15:40:31.006Z,107.20
2023-10-23T15:43:00.748Z,107.42
2023-10-23T15:45:38.368Z,107.56
2023-10-23T15:48:07.043Z,107.76
2023-10-23T15:50:35.486Z,107.78
2023-10-23T15:53:03.893Z,108.16
2023-10-23T15:55:34.016Z,108.35
2023-10-23T15:58:03.152Z,108.57
2023-10-23T16:00:31.524Z,108.72
2023-10-23T16:03:00.361Z,108.78
2023-10-23T16:05:28.875Z,109.02
2023-10-23T16:07:57.236Z,108.71
2023-10-23T16:10:26.673Z,108.66
2023-10-23T16:12:56.454Z,108.89
2023-10-23T16:15:24.771Z,108.69
2023-10-23T16:17:53.108Z,108.23
2023-10-23T16:20:22.088Z,108.51
2023-10-23T16:22:50.647Z,108.89
2023-10-23T16:25:19.049Z,108.82
2023-10-23T16:27:47.434Z,108.63
2023-10-23T16:30:17.293Z,107.97
2023-10-23T16:32:46.351Z,108.10
2023-10-23T16:35:14.739Z,107.50
2023-10-23T16:37:42.989Z,108.43
2023-10-23T16:40:12.722Z,108.86
2023-10-23T16:42:41.040Z,108.80
2023-10-23T16:45:10.394Z,108.89
2023-10-23T16:47:40.410Z,108.78
2023-10-23T16:50:09.810Z,108.58
2023-10-23T16:52:38.583Z,108.81
2023-10-23T16:55:09.145Z,108.99
2023-10-23T16:57:37.728Z,108.63
2023-10-23T17:00:07.583Z,108.67
2023-10-23T17:02:36.143Z,108.67
2023-10-23T17:05:06.704Z,108.11
2023-10-23T17:07:36.210Z,108.29
2023-10-23T17:10:05.416Z,108.40
2023-10-23T17:12:33.816Z,108.39
2023-10-23T17:15:02.459Z,108.30
2023-10-23T17:17:31.067Z,108.38
2023-10-23T17:19:59.663Z,108.44
2023-10-23T17:22:29.326Z,108.61
2023-10-23T17:24:57.816Z,108.92
2023-10-23T17:27:26.209Z,109.01
2023-10-23T17:29:54.496Z,109.14
2023-10-23T17:32:22.944Z,109.16
2023-10-23T17:34:51.276Z,109.12
2023-10-23T17:37:19.622Z,109.10
2023-10-23T17:39:49.381Z,109.02
2023-10-23T17:42:17.987Z,108.97
2023-10-23T17:44:46.301Z,109.17
2023-10-23T17:47:14.640Z,109.58
2023-10-23T17:49:43.583Z,109.45
2023-10-23T17:52:12.128Z,109.51
2023-10-23T17:54:41.736Z,109.65
2023-10-23T17:57:11.466Z,109.07
2023-10-23T17:59:40.124Z,108.91
2023-10-23T18:02:08.631Z,108.80
2023-10-23T18:04:37.094Z,109.01
2023-10-23T18:07:05.470Z,109.09
2023-10-23T18:09:33.839Z,109.09
2023-10-23T18:12:02.158Z,108.78
2023-10-23T18:14:31.806Z,109.26
2023-10-23T18:17:00.263Z,109.10
2023-10-23T18:19:28.762Z,109.16
2023-10-23T18:21:57.254Z,109.20
2023-10-23T18:24:25.530Z,109.52
2023-10-23T18:26:54.080Z,109.20
2023-10-23T18:29:22.369Z,109.61
2023-10-23T18:31:52.062Z,109.83
2023-10-23T18:34:20.433Z,110.19
2023-10-23T18:36:48.784Z,110.36
2023-10-23T18:39:17.122Z,110.42
2023-10-23T18:41:45.416Z,110.92
2023-10-23T18:44:13.850Z,111.10
2023-10-23T18:46:42.250Z,111.21
2023-10-23T18:49:11.996Z,111.69
2023-10-23T18:51:40.268Z,111.92
2023-10-23T18:54:08.699Z,111.87
2023-10-23T18:56:38.567Z,112.21
2023-10-23T18:59:08.167Z,112.50
2023-10-23T19:01:36.824Z,112.47
2023-10-23T19:04:05.513Z,112.49
2023-10-23T19:06:36.947Z,112.50
2023-10-23T19:09:06.753Z,112.68
2023-10-23T19:11:35.174Z,112.50
2023-10-23T19:14:03.680Z,112.50
2023-10-23T19:16:32.132Z,112.31
2023-10-23T19:19:00.569Z,112.37
2023-10-23T19:21:28.917Z,112.43
2023-10-23T19:23:58.603Z,112.68
2023-10-23T19:26:27.471Z,112.65
2023-10-23T19:28:55.763Z,112.72
2023-10-23T19:31:25.913Z,112.72
2023-10-23T19:33:54.952Z,112.35
2023-10-23T19:36:25.701Z,112.64
2023-10-23T19:38:54.711Z,112.90
2023-10-23T19:41:29.781Z,113.03
2023-10-23T19:43:58.718Z,112.97
2023-10-23T19:46:28.034Z,113.03
2023-10-23T19:48:56.835Z,112.97
2023-10-23T19:51:25.275Z,112.55
2023-10-23T19:53:54.794Z,112.53
2023-10-23T19:56:31.525Z,112.29
2023-10-23T19:59:02.404Z,112.08
2023-10-23T20:01:31.631Z,112.25
2023-10-23T20:04:00.068Z,112.36
2023-10-23T20:06:28.518Z,112.33
2023-10-23T20:08:56.774Z,112.52
2023-10-23T20:11:25.068Z,112.93
2023-10-23T20:13:53.511Z,113.17
2023-10-23T20:16:23.258Z,113.31
2023-10-23T20:18:53.262Z,113.54
2023-10-23T20:21:21.594Z,113.48
2023-10-23T20:23:49.861Z,113.41
2023-10-23T20:26:18.405Z,113.54
2023-10-23T20:28:46.738Z,112.94
2023-10-23T20:31:18.707Z,112.91
2023-10-23T20:33:50.853Z,112.86
2023-10-23T20:36:20.040Z,113.04
2023-10-23T20:38:48.616Z,113.12
2023-10-23T20:41:17.320Z,112.89
2023-10-23T20:43:46.973Z,112.87
2023-10-23T20:46:19.433Z,112.85
2023-10-23T20:48:49.217Z,112.81
2023-10-23T20:51:17.574Z,112.70
2023-10-23T20:53:45.854Z,112.55
2023-10-23T20:56:14.180Z,112.34
2023-10-23T20:58:43.176Z,112.58
2023-10-23T21:01:11.585Z,112.74
2023-10-23T21:03:40.119Z,112.74
2023-10-23T21:06:09.970Z,112.54
2023-10-23T21:08:39.709Z,112.58
2023-10-23T21:11:08.495Z,112.65
2023-10-23T21:13:37.134Z,112.74
2023-10-23T21:16:07.651Z,112.44
2023-10-23T21:18:36.008Z,112.45
2023-10-23T21:21:05.761Z,112.61
2023-10-23T21:23:35.661Z,112.85
2023-10-23T21:26:05.370Z,113.02
2023-10-23T21:28:33.670Z,113.15
2023-10-23T21:31:02.267Z,113.03
2023-10-23T21:33:31.847Z,112.91
2023-10-23T21:36:00.278Z,112.97
2023-10-23T21:38:28.560Z,113.09
2023-10-23T21:40:58.193Z,113.17
2023-10-23T21:43:26.500Z,113.10
2023-10-23T21:46:14.961Z,113.11
2023-10-23T21:48:43.059Z,113.25
2023-10-23T21:51:11.419Z,113.37
2023-10-23T21:53:40.191Z,113.54
2023-10-23T21:56:11.427Z,113.52
2023-10-23T21:59:06.800Z,113.48
2023-10-23T22:01:29.783Z,113.51
2023-10-23T22:03:58.686Z,113.53
2023-10-23T22:06:27.622Z,113.33
2023-10-23T22:08:56.408Z,113.22
2023-10-23T22:11:26.715Z,113.00
2023-10-23T22:13:55.564Z,112.96
2023-10-23T22:16:24.028Z,113.01
2023-10-23T22:18:52.787Z,113.02
2023-10-23T22:21:21.082Z,112.89
2023-10-23T22:23:49.433Z,112.74
2023-10-23T22:26:17.672Z,112.52
2023-10-23T22:28:47.854Z,112.58
2023-10-23T22:31:16.253Z,112.57
2023-10-23T22:33:44.661Z,112.22
2023-10-23T22:36:12.915Z,112.03
2023-10-23T22:38:41.315Z,111.58
2023-10-23T22:41:09.540Z,111.24
2023-10-23T22:43:37.800Z,111.15
2023-10-23T22:46:07.641Z,111.38
2023-10-23T22:48:36.045Z,111.13
2023-10-23T22:51:04.893Z,111.31
2023-10-23T22:53:34.110Z,110.71
2023-10-23T22:56:04.525Z,110.65
2023-10-23T22:58:35.220Z,110.82
2023-10-23T23:01:04.076Z,110.71
2023-10-23T23:03:34.742Z,110.42
2023-10-23T23:06:07.305Z,110.21
2023-10-23T23:08:40.841Z,109.61
2023-10-23T23:11:11.444Z,109.46
2023-10-23T23:13:40.066Z,109.45
2023-10-23T23:16:09.424Z,108.79
2023-10-23T23:18:41.010Z,108.40
2023-10-23T23:21:10.777Z,108.15
2023-10-23T23:23:39.091Z,108.08
2023-10-23T23:26:07.642Z,107.82
2023-10-23T23:28:36.570Z,107.79
2023-10-23T23:31:04.882Z,107.48
2023-10-23T23:33:33.777Z,107.40
2023-10-23T23:36:03.571Z,107.61
2023-10-23T23:38:31.932Z,107.33
2023-10-23T23:41:00.521Z,106.69
2023-10-23T23:43:28.867Z,107.15
2023-10-23T23:45:58.368Z,106.69
2023-10-23T23:48:26.754Z,107.33
2023-10-23T23:50:55.070Z,106.55
2023-10-23T23:53:24.648Z,106.61
2023-10-23T23:55:52.962Z,106.98
2023-10-23T23:58:24.960Z,106.69
